DNMM/LOS METAR and TAF weather

Enter ICAO airport designator
Station Type Date Time Source
DNMM METAR 2021/09/28 08:00 UTC NOAA

DNMM 280800Z 24004KT 9999 SCT011 FEW020CB 27/24 Q1011 NOSIG


Station Type Date Time Source
DNMM Decoded METAR 2021/09/28 08:00 UTC NOAA

Lagos / Ikeja, Nigeria (DNMM) 06-35N 003-20E 38M
Sep 28, 2021 - 04:00 AM EDT / 2021.09.28 0800 UTC
Wind: from the WSW (240 degrees) at 5 MPH (4 KT):0
Visibility: greater than 7 mile(s):0
Sky conditions: partly cloudy
Weather: Cumulonimbus clouds observed
Temperature: 80 F (27 C)
Dew Point: 75 F (24 C)
Relative Humidity: 83%
Pressure (altimeter): 29.85 in. Hg (1011 hPa)
ob: DNMM 280800Z 24004KT 9999 SCT011 FEW020CB 27/24 Q1011 NOSIG
cycle: 8

Station Type Date Time Source
DNMM TAF 2021/09/28 12:51 UTC NOAA

TAF DNMM 281100Z 2812/2918 23010KT 9999 BKN013 FEW020CB
TEMPO 2815/2819 5000 -TSRA BKN009 FEW020CB
BECMG 2819/2821 VRB02KT SCT011
BECMG 2908/2910 20010KT BKN013 FEW020CB

Example: see airport list